Stuart Place, Texas
Current Conditions -  °F | °C
As of 11:52 AM on Wednesday 28 Jan 2015 (Local Time) from KHRL Reporting Station
Clear Clear  
Wind Chill: 75°   Ceiling: Unl
Heat Index: 75°   Visibility: 10mi
Dew Point: 59°   Wind: 14mph
Humidity: 57%   Direction: 180°S
Pressure: 30.18"   Gusts: NA
Location:  26.2089°N, 97.6849°W
Report Text: KHRL 281752Z 18012KT 10SM CLR 24/15 A3018 RMK AO2 SLP219 T02390150 10244 20133 50001
Loading
Personal Weather Stations






























Interactive Weather Map New forecast layout! Learn more

10-Day Weather Forecast

Advertisements
Track Severe Weather on mobile